createdAt,value
2018-05-07T00:01:06.260Z,2.17
2018-05-07T00:03:33.514Z,2.50
2018-05-07T00:06:00.083Z,2.07
2018-05-07T00:08:26.575Z,2.27
2018-05-07T00:10:53.065Z,2.07
2018-05-07T00:13:19.573Z,2.10
2018-05-07T00:15:45.960Z,2.40
2018-05-07T00:18:12.502Z,1.77
2018-05-07T00:20:38.979Z,2.37
2018-05-07T00:23:06.155Z,1.73
2018-05-07T00:25:32.620Z,2.10
2018-05-07T00:27:59.023Z,1.43
2018-05-07T00:30:25.484Z,1.87
2018-05-07T00:32:51.875Z,1.97
2018-05-07T00:35:18.569Z,1.70
2018-05-07T00:37:45.029Z,2.33
2018-05-07T00:40:11.540Z,2.20
2018-05-07T00:42:37.987Z,1.90
2018-05-07T00:45:05.220Z,2.43
2018-05-07T00:47:31.775Z,2.10
2018-05-07T00:49:59.001Z,2.23
2018-05-07T00:52:25.440Z,1.50
2018-05-07T00:55:04.037Z,1.80
2018-05-07T00:57:30.473Z,2.47
2018-05-07T00:59:56.937Z,2.50
2018-05-07T01:02:23.421Z,2.80
2018-05-07T01:04:49.928Z,2.10
2018-05-07T01:07:17.160Z,2.57
2018-05-07T01:09:44.366Z,2.10
2018-05-07T01:12:11.568Z,2.10
2018-05-07T01:14:38.707Z,1.97
2018-05-07T01:17:05.179Z,1.73
2018-05-07T01:19:31.585Z,2.30
2018-05-07T01:21:58.775Z,2.30
2018-05-07T01:24:25.926Z,2.57
2018-05-07T01:26:52.508Z,2.00
2018-05-07T01:29:19.652Z,2.67
2018-05-07T01:31:46.860Z,6.10
2018-05-07T01:34:13.381Z,2.83
2018-05-07T01:36:39.823Z,3.37
2018-05-07T01:39:06.301Z,3.30
2018-05-07T01:41:32.738Z,3.70
2018-05-07T01:43:59.936Z,3.20
2018-05-07T01:46:26.423Z,3.60
2018-05-07T01:48:52.852Z,3.03
2018-05-07T01:51:19.511Z,2.73
2018-05-07T01:53:45.957Z,2.77
2018-05-07T01:56:12.453Z,2.40
2018-05-07T01:58:38.895Z,2.80
2018-05-07T02:01:06.064Z,2.93
2018-05-07T02:03:32.528Z,2.63
2018-05-07T02:05:58.987Z,3.10
2018-05-07T02:08:25.471Z,2.93
2018-05-07T02:10:51.895Z,2.60
2018-05-07T02:13:18.521Z,2.73
2018-05-07T02:15:45.918Z,2.47
2018-05-07T02:18:12.480Z,2.70
2018-05-07T02:20:38.936Z,2.77
2018-05-07T02:23:06.235Z,2.90
2018-05-07T02:25:32.661Z,2.60
2018-05-07T02:27:59.096Z,2.67
2018-05-07T02:30:25.564Z,2.60
2018-05-07T02:32:52.015Z,2.70
2018-05-07T02:35:18.537Z,2.40
2018-05-07T02:37:45.050Z,3.10
2018-05-07T02:40:11.591Z,2.90
2018-05-07T02:42:38.121Z,3.20
2018-05-07T02:45:04.562Z,3.43
2018-05-07T02:47:30.995Z,2.83
2018-05-07T02:49:57.399Z,2.47
2018-05-07T02:52:23.853Z,2.83
2018-05-07T02:54:50.269Z,2.77
2018-05-07T02:57:16.696Z,2.90
2018-05-07T02:59:43.119Z,2.80
2018-05-07T03:02:09.570Z,2.67
2018-05-07T03:04:36.007Z,2.83
2018-05-07T03:07:02.484Z,2.80
2018-05-07T03:09:29.790Z,2.30
2018-05-07T03:11:56.258Z,2.90
2018-05-07T03:14:22.705Z,3.30
2018-05-07T03:16:49.976Z,3.20
2018-05-07T03:19:16.384Z,3.10
2018-05-07T03:21:43.507Z,3.50
2018-05-07T03:24:10.039Z,3.20
2018-05-07T03:26:36.460Z,2.93
2018-05-07T03:29:03.032Z,2.93
2018-05-07T03:31:30.183Z,3.10
2018-05-07T03:33:57.362Z,2.90
2018-05-07T03:36:23.787Z,3.13
2018-05-07T03:38:50.187Z,3.47
2018-05-07T03:41:16.624Z,3.17
2018-05-07T03:43:43.802Z,3.33
2018-05-07T03:46:10.323Z,3.60
2018-05-07T03:48:36.821Z,3.17
2018-05-07T03:51:03.239Z,3.00
2018-05-07T03:53:29.653Z,3.13
2018-05-07T03:55:56.184Z,3.50
2018-05-07T03:58:22.633Z,3.37
2018-05-07T04:00:49.184Z,3.40
2018-05-07T04:03:15.620Z,3.60
2018-05-07T04:05:42.784Z,3.33
2018-05-07T04:08:09.354Z,3.40
2018-05-07T04:10:35.781Z,3.23
2018-05-07T04:13:02.360Z,3.17
2018-05-07T04:15:28.810Z,3.73
2018-05-07T04:18:07.553Z,3.87
2018-05-07T04:20:46.934Z,3.70
2018-05-07T04:25:40.513Z,4.33
2018-05-07T04:28:07.704Z,3.73
2018-05-07T04:30:34.163Z,3.80
2018-05-07T04:33:00.594Z,3.70
2018-05-07T04:35:27.232Z,4.03
2018-05-07T04:37:53.692Z,4.47
2018-05-07T04:40:20.251Z,3.70
2018-05-07T04:42:47.524Z,3.63
2018-05-07T04:45:14.037Z,3.67
2018-05-07T04:47:41.233Z,3.87
2018-05-07T04:50:07.723Z,3.97
2018-05-07T04:52:34.995Z,4.20
2018-05-07T04:55:01.471Z,4.10
2018-05-07T04:57:27.893Z,4.10
2018-05-07T04:59:55.478Z,3.90
2018-05-07T05:02:21.918Z,3.83
2018-05-07T05:04:49.116Z,3.37
2018-05-07T05:07:15.619Z,3.53
2018-05-07T05:09:42.172Z,3.20
2018-05-07T05:12:08.670Z,3.10
2018-05-07T05:14:37.547Z,3.87
2018-05-07T05:17:04.154Z,3.57
2018-05-07T05:19:30.595Z,3.83
2018-05-07T05:21:57.203Z,3.50
2018-05-07T05:24:24.429Z,3.97
2018-05-07T05:26:51.610Z,3.53
2018-05-07T05:29:19.513Z,3.90
2018-05-07T05:31:45.936Z,2.70
2018-05-07T05:34:12.440Z,2.97
2018-05-07T05:36:38.877Z,3.00
2018-05-07T05:39:06.247Z,2.83
2018-05-07T05:41:32.746Z,2.63
2018-05-07T05:43:59.972Z,2.60
2018-05-07T05:46:26.380Z,3.90
2018-05-07T05:48:52.922Z,2.37
2018-05-07T05:51:19.370Z,3.23
2018-05-07T05:53:46.019Z,2.17
2018-05-07T05:56:13.307Z,2.67
2018-05-07T05:58:39.722Z,2.10
2018-05-07T06:01:06.933Z,3.30
2018-05-07T06:03:33.376Z,3.40
2018-05-07T06:06:01.427Z,2.47
2018-05-07T06:08:27.840Z,3.97
2018-05-07T06:10:54.367Z,3.10
2018-05-07T06:13:20.838Z,3.03
2018-05-07T06:15:47.318Z,3.87
2018-05-07T06:18:14.665Z,2.90
2018-05-07T06:20:41.918Z,2.67
2018-05-07T06:23:09.202Z,2.43
2018-05-07T06:25:35.630Z,3.50
2018-05-07T06:28:02.098Z,3.20
2018-05-07T06:30:28.521Z,4.00
2018-05-07T06:32:55.056Z,3.70
2018-05-07T06:35:21.490Z,4.10
2018-05-07T06:37:47.973Z,2.40
2018-05-07T06:40:15.246Z,2.20
2018-05-07T06:42:41.716Z,3.23
2018-05-07T06:45:08.178Z,3.60
2018-05-07T06:47:35.624Z,3.30
2018-05-07T06:50:02.124Z,3.50
2018-05-07T06:52:28.913Z,3.17
2018-05-07T06:54:56.190Z,3.80
2018-05-07T06:57:22.678Z,4.03
2018-05-07T06:59:49.203Z,3.73
2018-05-07T07:02:15.753Z,2.40
2018-05-07T07:04:42.843Z,2.40
2018-05-07T07:07:09.387Z,2.97
2018-05-07T07:09:35.837Z,2.47
2018-05-07T07:12:02.376Z,3.17
2018-05-07T07:14:28.868Z,2.57
2018-05-07T07:16:55.331Z,3.40
2018-05-07T07:19:21.797Z,2.30
2018-05-07T07:21:48.323Z,3.00
2018-05-07T07:24:14.849Z,3.10
2018-05-07T07:26:41.363Z,2.70
2018-05-07T07:29:07.769Z,3.60
2018-05-07T07:31:34.925Z,3.17
2018-05-07T07:34:01.446Z,2.87
2018-05-07T07:36:27.853Z,3.27
2018-05-07T07:38:54.328Z,2.50
2018-05-07T07:41:21.604Z,3.10
2018-05-07T07:43:48.035Z,2.83
2018-05-07T07:46:15.079Z,2.90
2018-05-07T07:48:41.578Z,2.83
2018-05-07T07:51:08.770Z,2.80
2018-05-07T07:53:35.278Z,2.80
2018-05-07T07:56:01.736Z,2.90
2018-05-07T07:58:28.233Z,3.10
2018-05-07T08:00:55.449Z,3.10
2018-05-07T08:03:21.897Z,3.53
2018-05-07T08:05:48.341Z,3.20
2018-05-07T08:08:15.594Z,2.80
2018-05-07T08:10:42.075Z,3.27
2018-05-07T08:13:08.605Z,2.57
2018-05-07T08:15:35.066Z,3.03
2018-05-07T08:18:01.555Z,3.10
2018-05-07T08:20:28.082Z,2.03
2018-05-07T08:22:55.293Z,2.60
2018-05-07T08:25:21.713Z,2.90
2018-05-07T08:27:48.156Z,3.00
2018-05-07T08:30:14.577Z,3.03
2018-05-07T08:32:40.985Z,2.63
2018-05-07T08:35:07.421Z,2.20
2018-05-07T08:37:33.830Z,2.70
2018-05-07T08:40:01.000Z,2.03
2018-05-07T08:42:27.494Z,2.60
2018-05-07T08:44:53.977Z,3.10
2018-05-07T08:47:20.612Z,3.10
2018-05-07T08:49:47.064Z,3.20
2018-05-07T08:52:13.648Z,3.20
2018-05-07T08:54:40.849Z,3.00
2018-05-07T08:57:07.268Z,3.10
2018-05-07T08:59:33.703Z,3.27
2018-05-07T09:02:00.149Z,2.30
2018-05-07T09:04:26.768Z,2.67
2018-05-07T09:06:53.193Z,2.17
2018-05-07T09:09:19.791Z,2.37
2018-05-07T09:11:46.245Z,2.30
2018-05-07T09:14:12.709Z,2.80
2018-05-07T09:16:39.104Z,2.93
2018-05-07T09:19:06.297Z,2.60
2018-05-07T09:21:32.824Z,2.80
2018-05-07T09:23:59.257Z,2.50
2018-05-07T09:26:25.851Z,2.77
2018-05-07T09:28:53.198Z,2.23
2018-05-07T09:31:19.689Z,2.30
2018-05-07T09:33:46.145Z,2.67
2018-05-07T09:36:12.594Z,2.60
2018-05-07T09:38:39.228Z,2.20
2018-05-07T09:41:05.685Z,1.30
2018-05-07T09:43:32.913Z,2.40
2018-05-07T09:45:59.355Z,1.67
2018-05-07T09:48:25.846Z,2.17
2018-05-07T09:50:52.297Z,2.37
2018-05-07T09:53:18.766Z,2.20
2018-05-07T09:55:45.936Z,2.60
2018-05-07T09:58:13.193Z,2.53
2018-05-07T10:00:39.724Z,2.97
2018-05-07T10:03:06.140Z,1.73
2018-05-07T10:05:33.441Z,1.80
2018-05-07T10:07:59.948Z,2.03
2018-05-07T10:10:26.455Z,2.17
2018-05-07T10:12:53.633Z,2.20
2018-05-07T10:15:20.170Z,2.67
2018-05-07T10:17:46.617Z,2.50
2018-05-07T10:20:13.041Z,2.00
2018-05-07T10:22:39.499Z,2.00
2018-05-07T10:25:06.753Z,1.87
2018-05-07T10:27:33.248Z,2.70
2018-05-07T10:29:59.713Z,2.10
2018-05-07T10:32:26.124Z,2.23
2018-05-07T10:34:52.536Z,1.90
2018-05-07T10:37:19.692Z,2.30
2018-05-07T10:39:46.982Z,1.73
2018-05-07T10:42:13.536Z,2.03
2018-05-07T10:44:40.045Z,2.20
2018-05-07T10:47:06.477Z,1.90
2018-05-07T10:49:32.957Z,1.80
2018-05-07T10:52:00.014Z,2.30
2018-05-07T10:54:26.548Z,2.33
2018-05-07T10:56:53.793Z,1.97
2018-05-07T10:59:20.247Z,2.40
2018-05-07T11:01:46.889Z,2.30
2018-05-07T11:04:13.341Z,2.07
2018-05-07T11:06:39.809Z,2.10
2018-05-07T11:09:06.222Z,2.10
2018-05-07T11:11:32.695Z,2.10
2018-05-07T11:13:59.178Z,1.80
2018-05-07T11:16:25.630Z,1.93
2018-05-07T11:18:52.109Z,1.47
2018-05-07T11:21:19.321Z,1.50
2018-05-07T11:23:45.885Z,1.60
2018-05-07T11:26:13.162Z,2.07
2018-05-07T11:28:40.429Z,2.40
2018-05-07T11:31:06.914Z,1.73
2018-05-07T11:33:33.424Z,1.83
2018-05-07T11:35:59.880Z,2.10
2018-05-07T11:38:26.332Z,2.17
2018-05-07T11:40:53.658Z,2.47
2018-05-07T11:43:20.073Z,2.23
2018-05-07T11:45:46.604Z,1.77
2018-05-07T11:48:13.015Z,1.30
2018-05-07T11:50:39.581Z,2.20
2018-05-07T11:53:06.062Z,2.10
2018-05-07T11:55:33.249Z,2.20
2018-05-07T11:57:59.767Z,2.70
2018-05-07T12:00:26.217Z,2.20
2018-05-07T12:02:52.827Z,2.10
2018-05-07T12:05:20.113Z,1.63
2018-05-07T12:07:46.593Z,2.23
2018-05-07T12:10:13.057Z,1.53
2018-05-07T12:12:39.506Z,2.13
2018-05-07T12:15:06.027Z,2.50
2018-05-07T12:17:32.476Z,1.97
2018-05-07T12:19:58.978Z,2.20
2018-05-07T12:22:25.380Z,2.20
2018-05-07T12:24:52.137Z,2.00
2018-05-07T12:27:19.434Z,1.83
2018-05-07T12:29:45.861Z,2.23
2018-05-07T12:32:12.391Z,2.37
2018-05-07T12:34:38.876Z,1.67
2018-05-07T12:37:05.305Z,1.80
2018-05-07T12:39:31.734Z,2.40
2018-05-07T12:41:58.272Z,1.90
2018-05-07T12:44:24.752Z,1.87
2018-05-07T12:46:51.448Z,1.67
2018-05-07T12:49:18.589Z,2.10
2018-05-07T12:51:45.041Z,1.90
2018-05-07T12:54:11.570Z,2.23
2018-05-07T12:56:38.003Z,2.23
2018-05-07T12:59:04.479Z,1.77
2018-05-07T13:01:30.883Z,2.43
2018-05-07T13:03:58.039Z,2.50
2018-05-07T13:06:25.225Z,2.00
2018-05-07T13:08:51.787Z,2.40
2018-05-07T13:11:18.692Z,1.90
2018-05-07T13:13:45.175Z,2.23
2018-05-07T13:16:11.592Z,2.17
2018-05-07T13:18:38.057Z,1.90
2018-05-07T13:21:04.501Z,2.50
2018-05-07T13:23:31.681Z,2.13
2018-05-07T13:25:58.155Z,2.20
2018-05-07T13:28:24.658Z,2.83
2018-05-07T13:30:51.206Z,2.10
2018-05-07T13:33:17.645Z,2.03
2018-05-07T13:35:44.101Z,2.30
2018-05-07T13:38:10.569Z,1.80
2018-05-07T13:40:37.022Z,2.70
2018-05-07T13:43:03.458Z,2.70
2018-05-07T13:45:29.868Z,2.70
2018-05-07T13:47:57.124Z,2.50
2018-05-07T13:50:23.582Z,2.47
2018-05-07T13:52:50.221Z,2.03
2018-05-07T13:55:16.672Z,2.43
2018-05-07T13:57:43.160Z,2.10
2018-05-07T14:00:09.624Z,2.43
2018-05-07T14:02:36.253Z,2.23
2018-05-07T14:05:02.796Z,2.10
2018-05-07T14:07:29.222Z,2.23
2018-05-07T14:09:55.661Z,2.70
2018-05-07T14:12:22.093Z,2.10
2018-05-07T14:14:48.566Z,2.10
2018-05-07T14:17:15.005Z,2.40
2018-05-07T14:19:41.501Z,2.80
2018-05-07T14:22:07.974Z,2.33
2018-05-07T14:24:35.251Z,2.50
2018-05-07T14:27:01.733Z,2.30
2018-05-07T14:29:28.204Z,4.30
2018-05-07T14:31:55.424Z,2.43
2018-05-07T14:34:21.870Z,2.50
2018-05-07T14:36:48.586Z,2.20
2018-05-07T14:39:15.008Z,2.60
2018-05-07T14:41:41.466Z,1.97
2018-05-07T14:44:07.922Z,2.80
2018-05-07T14:46:35.250Z,3.10
2018-05-07T14:49:01.781Z,2.90
2018-05-07T14:51:28.222Z,2.50
2018-05-07T14:53:54.699Z,3.10
2018-05-07T14:56:21.122Z,2.90
2018-05-07T14:58:48.311Z,2.80
2018-05-07T15:01:14.813Z,2.47
2018-05-07T15:03:42.084Z,2.97
2018-05-07T15:06:09.193Z,2.80
2018-05-07T15:08:35.770Z,2.60
2018-05-07T15:11:02.255Z,2.83
2018-05-07T15:13:28.741Z,2.57
2018-05-07T15:16:02.140Z,2.87
2018-05-07T15:18:28.597Z,2.77
2018-05-07T15:20:55.123Z,3.37
2018-05-07T15:23:21.649Z,2.93
2018-05-07T15:25:48.826Z,2.80
2018-05-07T15:41:43.688Z,2.63
2018-05-07T15:44:10.425Z,3.20
2018-05-07T15:46:36.911Z,2.83
2018-05-07T15:49:04.136Z,4.30
2018-05-07T15:51:30.604Z,3.50
2018-05-07T15:53:57.938Z,3.20
2018-05-07T15:56:24.421Z,2.40
2018-05-07T15:58:51.061Z,2.83
2018-05-07T16:01:18.009Z,2.70
2018-05-07T16:03:44.502Z,2.30
2018-05-07T16:06:11.802Z,2.03
2018-05-07T16:08:45.910Z,2.63
2018-05-07T16:11:12.446Z,2.37
2018-05-07T16:13:38.991Z,2.43
2018-05-07T16:16:05.412Z,2.40
2018-05-07T16:18:31.927Z,2.03
2018-05-07T16:21:05.310Z,2.20
2018-05-07T16:26:30.045Z,2.57
2018-05-07T16:28:56.597Z,2.90
2018-05-07T16:31:26.942Z,2.50
2018-05-07T16:33:54.249Z,2.40
2018-05-07T16:36:20.988Z,1.93
2018-05-07T16:38:47.996Z,2.20
2018-05-07T16:41:14.493Z,1.97
2018-05-07T16:43:42.333Z,2.10
2018-05-07T16:46:08.978Z,3.00
2018-05-07T16:48:35.482Z,2.47
2018-05-07T16:51:01.913Z,2.60
2018-05-07T16:53:29.111Z,2.53
2018-05-07T16:55:55.592Z,2.97
2018-05-07T16:58:22.778Z,2.30
2018-05-07T17:00:49.271Z,3.20
2018-05-07T17:03:16.476Z,3.63
2018-05-07T17:05:43.418Z,3.20
2018-05-07T17:08:10.203Z,3.20
2018-05-07T17:10:38.234Z,3.33
2018-05-07T17:13:06.327Z,3.40
2018-05-07T17:15:32.918Z,2.90
2018-05-07T17:17:59.412Z,3.00
2018-05-07T17:20:25.893Z,3.20
2018-05-07T17:22:53.464Z,2.83
2018-05-07T17:25:19.902Z,2.77
2018-05-07T17:27:46.494Z,2.40
2018-05-07T17:30:13.725Z,2.90
2018-05-07T17:32:40.377Z,2.83
2018-05-07T17:35:07.713Z,2.67
2018-05-07T17:37:34.179Z,2.40
2018-05-07T17:40:01.519Z,2.60
2018-05-07T17:42:28.765Z,2.50
2018-05-07T17:58:29.966Z,2.70
2018-05-07T18:00:56.957Z,3.07
2018-05-07T18:03:24.191Z,2.63
2018-05-07T18:05:50.758Z,2.20
2018-05-07T18:08:17.245Z,3.10
2018-05-07T18:10:43.852Z,2.70
2018-05-07T18:13:10.424Z,3.23
2018-05-07T18:15:36.985Z,3.40
2018-05-07T18:18:04.206Z,3.30
2018-05-07T18:20:31.043Z,3.27
2018-05-07T18:22:57.505Z,3.03
2018-05-07T18:25:24.819Z,2.83
2018-05-07T18:27:51.301Z,3.77
2018-05-07T18:30:18.478Z,2.70
2018-05-07T18:32:45.050Z,3.10
2018-05-07T18:35:11.439Z,3.77
2018-05-07T18:37:38.146Z,3.70
2018-05-07T18:40:05.369Z,2.77
2018-05-07T18:42:31.845Z,3.60
2018-05-07T18:44:58.638Z,3.33
2018-05-07T18:47:25.061Z,3.37
2018-05-07T18:49:51.567Z,3.50
2018-05-07T18:52:18.545Z,3.67
2018-05-07T18:54:45.026Z,3.70
2018-05-07T18:57:12.222Z,3.70
2018-05-07T18:59:38.768Z,3.47
2018-05-07T19:02:05.234Z,3.57
2018-05-07T19:04:31.735Z,4.13
2018-05-07T19:06:58.314Z,4.67
2018-05-07T19:09:24.941Z,4.60
2018-05-07T19:11:51.403Z,4.70
2018-05-07T19:14:18.035Z,4.90
2018-05-07T19:16:44.637Z,4.40
2018-05-07T19:19:11.145Z,4.30
2018-05-07T19:21:37.736Z,4.50
2018-05-07T19:24:08.118Z,4.07
2018-05-07T19:26:34.627Z,4.40
2018-05-07T19:29:01.098Z,4.00
2018-05-07T19:31:27.753Z,4.40
2018-05-07T19:36:50.207Z,4.10
2018-05-07T19:39:17.518Z,4.80
2018-05-07T19:41:44.457Z,4.97
2018-05-07T19:44:11.057Z,5.80
2018-05-07T19:46:38.426Z,5.87
2018-05-07T19:49:05.805Z,5.50
2018-05-07T19:51:32.296Z,5.83
2018-05-07T19:53:58.846Z,4.53
2018-05-07T19:56:26.221Z,5.60
2018-05-07T19:58:52.788Z,5.33
2018-05-07T20:01:19.337Z,4.63
2018-05-07T20:03:45.901Z,5.27
2018-05-07T20:06:13.149Z,4.73
2018-05-07T20:08:40.402Z,5.10
2018-05-07T20:11:07.703Z,4.97
2018-05-07T20:13:34.267Z,5.47
2018-05-07T20:16:00.831Z,5.70
2018-05-07T20:18:28.091Z,5.20
2018-05-07T20:20:55.352Z,6.67
2018-05-07T20:23:21.850Z,7.20
2018-05-07T20:25:48.308Z,7.00
2018-05-07T20:28:15.543Z,6.00
2018-05-07T20:30:42.013Z,8.10
2018-05-07T20:33:08.554Z,8.30
2018-05-07T20:35:35.052Z,7.57
2018-05-07T20:38:02.306Z,6.90
2018-05-07T20:40:29.713Z,7.07
2018-05-07T20:42:56.243Z,7.80
2018-05-07T20:45:22.726Z,6.50
2018-05-07T20:47:50.394Z,6.30
2018-05-07T20:50:16.798Z,7.10
2018-05-07T20:52:43.758Z,7.27
2018-05-07T20:55:11.155Z,6.57
2018-05-07T20:57:37.631Z,5.97
2018-05-07T21:00:04.217Z,6.80
2018-05-07T21:02:30.737Z,5.10
2018-05-07T21:04:57.238Z,5.43
2018-05-07T21:07:24.009Z,6.03
2018-05-07T21:09:51.939Z,6.63
2018-05-07T21:12:18.529Z,6.77
2018-05-07T21:14:45.003Z,6.77
2018-05-07T21:17:12.358Z,6.63
2018-05-07T21:19:40.752Z,6.47
2018-05-07T21:22:07.218Z,6.53
2018-05-07T21:24:34.463Z,6.83
2018-05-07T21:27:02.451Z,6.70
2018-05-07T21:29:29.122Z,6.07
2018-05-07T21:31:55.640Z,6.97
2018-05-07T21:34:22.259Z,6.07
2018-05-07T21:36:50.010Z,6.00
2018-05-07T21:39:16.501Z,5.50
2018-05-07T21:41:43.125Z,6.77
2018-05-07T21:44:09.624Z,6.10
2018-05-07T21:46:36.980Z,6.80
2018-05-07T21:49:03.476Z,6.10
2018-05-07T21:51:30.161Z,6.10
2018-05-07T21:53:56.691Z,6.40
2018-05-07T21:56:23.244Z,5.87
2018-05-07T21:58:49.767Z,6.07
2018-05-07T22:01:16.386Z,5.93
2018-05-07T22:03:43.707Z,6.17
2018-05-07T22:06:10.157Z,6.03
2018-05-07T22:08:36.763Z,6.67
2018-05-07T22:11:03.361Z,7.50
2018-05-07T22:13:29.827Z,6.30
2018-05-07T22:15:56.359Z,5.70
2018-05-07T22:18:22.838Z,6.00
2018-05-07T22:20:50.500Z,6.00
2018-05-07T22:23:17.831Z,5.67
2018-05-07T22:25:44.278Z,7.27
2018-05-07T22:28:10.771Z,6.33
2018-05-07T22:30:37.196Z,6.17
2018-05-07T22:33:03.664Z,7.33
2018-05-07T22:35:30.088Z,5.70
2018-05-07T22:37:56.573Z,6.00
2018-05-07T22:40:23.886Z,5.87
2018-05-07T22:42:50.616Z,6.40
2018-05-07T22:45:17.074Z,6.77
2018-05-07T22:47:43.501Z,5.80
2018-05-07T22:50:10.098Z,5.90
2018-05-07T22:52:36.546Z,6.50
2018-05-07T22:55:19.703Z,5.60
2018-05-07T22:57:46.189Z,6.30
2018-05-07T23:00:13.508Z,6.33
2018-05-07T23:02:40.714Z,6.30
2018-05-07T23:05:07.206Z,5.50
2018-05-07T23:07:33.710Z,5.90
2018-05-07T23:10:00.168Z,5.97
2018-05-07T23:12:34.505Z,5.50
2018-05-07T23:15:01.003Z,5.37
2018-05-07T23:17:28.178Z,5.60
2018-05-07T23:19:54.646Z,5.37
2018-05-07T23:22:21.069Z,4.87
2018-05-07T23:24:47.556Z,4.60
2018-05-07T23:27:17.970Z,5.10
2018-05-07T23:29:45.193Z,4.77
2018-05-07T23:32:11.677Z,5.17
2018-05-07T23:34:38.855Z,4.63
2018-05-07T23:37:05.412Z,5.17
2018-05-07T23:39:31.830Z,5.00
2018-05-07T23:41:58.367Z,4.73
2018-05-07T23:44:24.844Z,5.30
2018-05-07T23:46:51.274Z,4.90
2018-05-07T23:49:17.729Z,4.63
2018-05-07T23:51:44.914Z,4.40
2018-05-07T23:54:11.343Z,5.50
2018-05-07T23:56:37.803Z,4.80
2018-05-07T23:59:04.250Z,5.57
